This is the latest recevied weather packets stored in our database for station/object N2PUI. If no packets are shown the sender has not sent any weather packets the latest 10 day(s).
| Time | Temp. | Humidity | Pressure | Rain* | Wind** | Luminosity | Snow |
|---|---|---|---|---|---|---|---|
| 1778017053 | 18.33° C | 76% | 1006.8 hPa | 0 mm | - | 203 W/m² | - |
| 1778016750 | 18.33° C | 79% | 1006.7 hPa | 0 mm | - | 206 W/m² | - |
| 1778016446 | 17.78° C | 81% | 1006.4 hPa | 0 mm | - | 269 W/m² | - |
| 1778016144 | 17.22° C | 82% | 1006.4 hPa | 0 mm | - | 314 W/m² | - |
| 1778015841 | 16.67° C | 83% | 1006.8 hPa | 0 mm | - | 289 W/m² | - |
| 1778015538 | 16.11° C | 85% | 1006.7 hPa | 0 mm | - | 258 W/m² | - |
| 1778015234 | 16.67° C | 88% | 1006.7 hPa | 0 mm | - | 245 W/m² | - |
| 1778014931 | 16.11° C | 88% | 1006.4 hPa | 0 mm | - | 292 W/m² | - |
| 1778014629 | 16.11° C | 88% | 1006.7 hPa | 0 mm | - | 276 W/m² | - |
| 1778014327 | 16.11° C | 89% | 1006.6 hPa | 0 mm | - | 314 W/m² | - |
| 1778014023 | 16.11° C | 89% | 1006.7 hPa | 0 mm | - | 351 W/m² | - |
| 1778013720 | 15.56° C | 89% | 1006.8 hPa | 0 mm | - | 186 W/m² | - |
| 1778013412 | 15.56° C | 88% | 1006.9 hPa | 0 mm | - | 107 W/m² | - |
| 1778013109 | 15.56° C | 88% | 1007 hPa | 0 mm | - | 67 W/m² | - |
| 1778012804 | 15.56° C | 88% | 1007.1 hPa | 0 mm | - | 85 W/m² | - |
| 1778012501 | 15.56° C | 87% | 1007.3 hPa | 0 mm | - | 108 W/m² | - |
| 1778012197 | 15.56° C | 87% | 1007.6 hPa | 0 mm | - | 122 W/m² | - |
| 1778011896 | 15.56° C | 87% | 1007.7 hPa | 1.78 mm | - | 107 W/m² | - |
| 1778011593 | 15.56° C | 86% | 1007.9 hPa | 4.83 mm | - | 140 W/m² | - |
| 1778011290 | 16.11° C | 85% | 1008.1 hPa | 4.83 mm | - | 96 W/m² | - |
| 1778010986 | 16.11° C | 84% | 1008.6 hPa | 1.78 mm | - | 45 W/m² | - |
| 1778010684 | 16.11° C | 83% | 1008.3 hPa | 1.27 mm | - | 31 W/m² | - |
| 1778010381 | 16.67° C | 82% | 1008.1 hPa | 4.32 mm | - | 44 W/m² | - |
| 1778010076 | 17.78° C | 77% | 1007.6 hPa | 3.05 mm | - | 57 W/m² | - |
| 1778009774 | 21.11° C | 62% | 1007 hPa | 0 mm | - | 54 W/m² | - |
* Rain latest hour (hover to see other rain measurements)
** Current wind speed in m/s (hover to see current wind gust speed)